sensor_id;sensor_type;location;lat;lon;timestamp;P1;durP1;ratioP1;P2;durP2;ratioP2
15952;SDS011;8075;47.766;8.846;2023-04-03T00:01:16;5.77;;;5.37;;
15952;SDS011;8075;47.766;8.846;2023-04-03T00:03:42;6.13;;;5.63;;
15952;SDS011;8075;47.766;8.846;2023-04-03T00:06:09;5.82;;;5.40;;
15952;SDS011;8075;47.766;8.846;2023-04-03T00:08:36;5.90;;;5.50;;
15952;SDS011;8075;47.766;8.846;2023-04-03T00:11:02;6.38;;;5.88;;
15952;SDS011;8075;47.766;8.846;2023-04-03T00:13:28;6.43;;;5.95;;
15952;SDS011;8075;47.766;8.846;2023-04-03T00:15:54;6.43;;;5.93;;
15952;SDS011;8075;47.766;8.846;2023-04-03T00:18:21;6.05;;;5.65;;
15952;SDS011;8075;47.766;8.846;2023-04-03T00:20:47;5.65;;;5.25;;
15952;SDS011;8075;47.766;8.846;2023-04-03T00:23:13;6.28;;;5.78;;
15952;SDS011;8075;47.766;8.846;2023-04-03T00:25:40;5.53;;;5.13;;
15952;SDS011;8075;47.766;8.846;2023-04-03T00:28:06;5.35;;;4.93;;
15952;SDS011;8075;47.766;8.846;2023-04-03T00:30:32;5.70;;;4.78;;
15952;SDS011;8075;47.766;8.846;2023-04-03T00:32:58;5.38;;;4.97;;
15952;SDS011;8075;47.766;8.846;2023-04-03T00:35:25;5.30;;;4.90;;
15952;SDS011;8075;47.766;8.846;2023-04-03T00:37:52;5.05;;;4.65;;
15952;SDS011;8075;47.766;8.846;2023-04-03T00:40:18;4.85;;;4.55;;
15952;SDS011;8075;47.766;8.846;2023-04-03T00:42:45;5.18;;;4.72;;
15952;SDS011;8075;47.766;8.846;2023-04-03T00:47:43;4.97;;;4.57;;
15952;SDS011;8075;47.766;8.846;2023-04-03T00:50:10;4.77;;;4.37;;
15952;SDS011;8075;47.766;8.846;2023-04-03T00:52:36;5.32;;;4.93;;
15952;SDS011;8075;47.766;8.846;2023-04-03T00:55:04;4.93;;;4.53;;
15952;SDS011;8075;47.766;8.846;2023-04-03T00:57:31;4.53;;;4.22;;
15952;SDS011;8075;47.766;8.846;2023-04-03T00:59:59;4.53;;;4.23;;
15952;SDS011;8075;47.766;8.846;2023-04-03T01:02:26;4.45;;;4.15;;
15952;SDS011;8075;47.766;8.846;2023-04-03T01:04:53;4.20;;;3.90;;
15952;SDS011;8075;47.766;8.846;2023-04-03T01:07:23;3.85;;;3.55;;
15952;SDS011;8075;47.766;8.846;2023-04-03T01:09:50;4.20;;;3.90;;
15952;SDS011;8075;47.766;8.846;2023-04-03T01:12:21;4.68;;;4.28;;
15952;SDS011;8075;47.766;8.846;2023-04-03T01:14:51;4.50;;;4.20;;
15952;SDS011;8075;47.766;8.846;2023-04-03T01:22:30;4.60;;;4.20;;
15952;SDS011;8075;47.766;8.846;2023-04-03T01:25:01;4.63;;;4.32;;
15952;SDS011;8075;47.766;8.846;2023-04-03T01:27:27;4.53;;;4.22;;
15952;SDS011;8075;47.766;8.846;2023-04-03T01:29:53;5.40;;;4.90;;
15952;SDS011;8075;47.766;8.846;2023-04-03T01:32:19;4.90;;;4.60;;
15952;SDS011;8075;47.766;8.846;2023-04-03T01:34:45;5.07;;;4.78;;
15952;SDS011;8075;47.766;8.846;2023-04-03T01:37:11;5.30;;;4.90;;
15952;SDS011;8075;47.766;8.846;2023-04-03T01:39:37;4.82;;;4.53;;
15952;SDS011;8075;47.766;8.846;2023-04-03T01:42:03;5.60;;;5.20;;
15952;SDS011;8075;47.766;8.846;2023-04-03T01:44:29;5.20;;;4.80;;
15952;SDS011;8075;47.766;8.846;2023-04-03T01:46:55;5.33;;;4.83;;
15952;SDS011;8075;47.766;8.846;2023-04-03T01:49:21;5.60;;;5.20;;
15952;SDS011;8075;47.766;8.846;2023-04-03T01:51:47;5.82;;;5.43;;
15952;SDS011;8075;47.766;8.846;2023-04-03T01:54:13;5.57;;;5.15;;
15952;SDS011;8075;47.766;8.846;2023-04-03T01:56:39;5.55;;;5.15;;
15952;SDS011;8075;47.766;8.846;2023-04-03T01:59:05;5.90;;;5.50;;
15952;SDS011;8075;47.766;8.846;2023-04-03T02:01:31;6.25;;;5.85;;
15952;SDS011;8075;47.766;8.846;2023-04-03T02:03:57;6.30;;;5.80;;
15952;SDS011;8075;47.766;8.846;2023-04-03T02:06:23;6.40;;;5.90;;
15952;SDS011;8075;47.766;8.846;2023-04-03T02:08:50;6.90;;;6.40;;
15952;SDS011;8075;47.766;8.846;2023-04-03T02:11:16;7.00;;;6.50;;
15952;SDS011;8075;47.766;8.846;2023-04-03T02:13:42;6.90;;;6.40;;
15952;SDS011;8075;47.766;8.846;2023-04-03T02:16:09;6.88;;;6.38;;
15952;SDS011;8075;47.766;8.846;2023-04-03T02:18:36;7.40;;;6.83;;
15952;SDS011;8075;47.766;8.846;2023-04-03T02:21:02;7.95;;;7.45;;
15952;SDS011;8075;47.766;8.846;2023-04-03T02:23:28;7.60;;;7.10;;
15952;SDS011;8075;47.766;8.846;2023-04-03T02:26:01;8.00;;;7.40;;
15952;SDS011;8075;47.766;8.846;2023-04-03T02:28:27;7.60;;;7.10;;
15952;SDS011;8075;47.766;8.846;2023-04-03T02:30:53;8.30;;;7.70;;
15952;SDS011;8075;47.766;8.846;2023-04-03T02:33:19;8.03;;;7.53;;
15952;SDS011;8075;47.766;8.846;2023-04-03T02:35:45;8.05;;;7.45;;
15952;SDS011;8075;47.766;8.846;2023-04-03T02:38:17;7.70;;;7.20;;
15952;SDS011;8075;47.766;8.846;2023-04-03T02:40:44;7.63;;;7.03;;
15952;SDS011;8075;47.766;8.846;2023-04-03T02:43:10;7.13;;;6.63;;
15952;SDS011;8075;47.766;8.846;2023-04-03T02:45:36;7.95;;;7.25;;
15952;SDS011;8075;47.766;8.846;2023-04-03T02:48:02;7.40;;;6.90;;
15952;SDS011;8075;47.766;8.846;2023-04-03T02:50:28;6.78;;;6.28;;
15952;SDS011;8075;47.766;8.846;2023-04-03T02:52:54;5.82;;;5.43;;
15952;SDS011;8075;47.766;8.846;2023-04-03T02:55:20;5.88;;;5.47;;
15952;SDS011;8075;47.766;8.846;2023-04-03T02:57:46;5.43;;;5.03;;
15952;SDS011;8075;47.766;8.846;2023-04-03T03:00:12;5.60;;;5.20;;
15952;SDS011;8075;47.766;8.846;2023-04-03T03:02:39;5.20;;;4.80;;
15952;SDS011;8075;47.766;8.846;2023-04-03T03:05:05;5.43;;;5.03;;
15952;SDS011;8075;47.766;8.846;2023-04-03T03:07:32;5.43;;;5.03;;
15952;SDS011;8075;47.766;8.846;2023-04-03T03:09:58;5.93;;;5.53;;
15952;SDS011;8075;47.766;8.846;2023-04-03T03:12:24;6.00;;;5.50;;
15952;SDS011;8075;47.766;8.846;2023-04-03T03:14:50;5.70;;;5.30;;
15952;SDS011;8075;47.766;8.846;2023-04-03T03:17:17;5.65;;;5.18;;
15952;SDS011;8075;47.766;8.846;2023-04-03T03:19:43;6.13;;;5.63;;
15952;SDS011;8075;47.766;8.846;2023-04-03T03:22:10;5.93;;;5.50;;
15952;SDS011;8075;47.766;8.846;2023-04-03T03:24:36;5.97;;;5.57;;
15952;SDS011;8075;47.766;8.846;2023-04-03T03:27:02;6.38;;;5.88;;
15952;SDS011;8075;47.766;8.846;2023-04-03T03:29:28;5.47;;;5.07;;
15952;SDS011;8075;47.766;8.846;2023-04-03T03:31:54;6.00;;;5.60;;
15952;SDS011;8075;47.766;8.846;2023-04-03T03:34:20;6.10;;;5.70;;
15952;SDS011;8075;47.766;8.846;2023-04-03T03:36:46;6.40;;;6.00;;
15952;SDS011;8075;47.766;8.846;2023-04-03T03:39:12;5.80;;;5.40;;
15952;SDS011;8075;47.766;8.846;2023-04-03T03:41:38;6.25;;;5.75;;
15952;SDS011;8075;47.766;8.846;2023-04-03T03:44:04;6.18;;;5.68;;
15952;SDS011;8075;47.766;8.846;2023-04-03T03:46:30;6.10;;;5.63;;
15952;SDS011;8075;47.766;8.846;2023-04-03T03:48:56;6.20;;;5.75;;
15952;SDS011;8075;47.766;8.846;2023-04-03T03:51:22;5.68;;;5.28;;
15952;SDS011;8075;47.766;8.846;2023-04-03T03:53:48;5.83;;;5.43;;
15952;SDS011;8075;47.766;8.846;2023-04-03T03:56:14;5.95;;;5.55;;
15952;SDS011;8075;47.766;8.846;2023-04-03T03:58:40;5.40;;;5.00;;
15952;SDS011;8075;47.766;8.846;2023-04-03T04:01:06;5.60;;;5.28;;
15952;SDS011;8075;47.766;8.846;2023-04-03T04:03:32;5.00;;;4.70;;
15952;SDS011;8075;47.766;8.846;2023-04-03T04:05:58;5.40;;;5.00;;
15952;SDS011;8075;47.766;8.846;2023-04-03T04:08:24;5.43;;;5.03;;
15952;SDS011;8075;47.766;8.846;2023-04-03T04:10:50;5.00;;;4.47;;
15952;SDS011;8075;47.766;8.846;2023-04-03T04:13:16;5.15;;;4.85;;
15952;SDS011;8075;47.766;8.846;2023-04-03T04:15:43;5.13;;;4.73;;
15952;SDS011;8075;47.766;8.846;2023-04-03T04:18:09;4.63;;;4.32;;
15952;SDS011;8075;47.766;8.846;2023-04-03T04:20:35;4.60;;;4.30;;
15952;SDS011;8075;47.766;8.846;2023-04-03T04:23:01;4.90;;;4.50;;
15952;SDS011;8075;47.766;8.846;2023-04-03T04:25:27;4.47;;;4.18;;
15952;SDS011;8075;47.766;8.846;2023-04-03T04:27:53;4.50;;;4.20;;
15952;SDS011;8075;47.766;8.846;2023-04-03T04:30:19;4.47;;;4.18;;
15952;SDS011;8075;47.766;8.846;2023-04-03T04:32:45;3.90;;;3.63;;
15952;SDS011;8075;47.766;8.846;2023-04-03T04:35:11;4.15;;;3.85;;
15952;SDS011;8075;47.766;8.846;2023-04-03T04:37:37;3.85;;;3.55;;
15952;SDS011;8075;47.766;8.846;2023-04-03T04:40:04;4.10;;;3.70;;
15952;SDS011;8075;47.766;8.846;2023-04-03T04:42:30;3.40;;;3.20;;
15952;SDS011;8075;47.766;8.846;2023-04-03T04:44:56;3.67;;;3.40;;
15952;SDS011;8075;47.766;8.846;2023-04-03T04:47:22;3.42;;;3.22;;
15952;SDS011;8075;47.766;8.846;2023-04-03T04:49:48;2.97;;;2.78;;
15952;SDS011;8075;47.766;8.846;2023-04-03T04:52:14;2.97;;;2.70;;
15952;SDS011;8075;47.766;8.846;2023-04-03T04:54:40;3.13;;;2.92;;
15952;SDS011;8075;47.766;8.846;2023-04-03T04:57:06;3.85;;;3.05;;
15952;SDS011;8075;47.766;8.846;2023-04-03T04:59:32;3.00;;;2.80;;
15952;SDS011;8075;47.766;8.846;2023-04-03T05:01:58;2.97;;;2.77;;
15952;SDS011;8075;47.766;8.846;2023-04-03T05:04:24;3.30;;;3.10;;
15952;SDS011;8075;47.766;8.846;2023-04-03T05:06:50;3.33;;;3.03;;
15952;SDS011;8075;47.766;8.846;2023-04-03T05:09:16;3.45;;;3.22;;
15952;SDS011;8075;47.766;8.846;2023-04-03T05:11:42;3.70;;;3.25;;
15952;SDS011;8075;47.766;8.846;2023-04-03T05:14:08;3.28;;;2.97;;
15952;SDS011;8075;47.766;8.846;2023-04-03T05:16:34;3.00;;;2.70;;
15952;SDS011;8075;47.766;8.846;2023-04-03T05:19:00;3.35;;;3.08;;
15952;SDS011;8075;47.766;8.846;2023-04-03T05:21:26;2.85;;;2.65;;
15952;SDS011;8075;47.766;8.846;2023-04-03T05:23:56;3.40;;;2.97;;
15952;SDS011;8075;47.766;8.846;2023-04-03T05:26:23;3.88;;;2.83;;
15952;SDS011;8075;47.766;8.846;2023-04-03T05:28:50;3.00;;;2.80;;
15952;SDS011;8075;47.766;8.846;2023-04-03T05:33:45;3.08;;;2.88;;
15952;SDS011;8075;47.766;8.846;2023-04-03T05:36:11;3.10;;;2.90;;
15952;SDS011;8075;47.766;8.846;2023-04-03T05:38:38;2.92;;;2.72;;
15952;SDS011;8075;47.766;8.846;2023-04-03T05:41:04;2.80;;;2.60;;
15952;SDS011;8075;47.766;8.846;2023-04-03T05:43:30;3.08;;;2.80;;
15952;SDS011;8075;47.766;8.846;2023-04-03T05:45:58;2.75;;;2.55;;
15952;SDS011;8075;47.766;8.846;2023-04-03T05:48:24;2.95;;;2.75;;
15952;SDS011;8075;47.766;8.846;2023-04-03T05:50:50;2.78;;;2.58;;
15952;SDS011;8075;47.766;8.846;2023-04-03T05:53:27;2.88;;;2.60;;
15952;SDS011;8075;47.766;8.846;2023-04-03T05:55:53;3.30;;;3.00;;
15952;SDS011;8075;47.766;8.846;2023-04-03T05:58:19;2.92;;;2.72;;
15952;SDS011;8075;47.766;8.846;2023-04-03T06:00:45;2.95;;;2.70;;
15952;SDS011;8075;47.766;8.846;2023-04-03T06:03:11;3.30;;;2.78;;
15952;SDS011;8075;47.766;8.846;2023-04-03T06:05:37;2.88;;;2.67;;
15952;SDS011;8075;47.766;8.846;2023-04-03T06:08:03;2.90;;;2.70;;
15952;SDS011;8075;47.766;8.846;2023-04-03T06:10:29;2.83;;;2.60;;
15952;SDS011;8075;47.766;8.846;2023-04-03T06:12:55;3.30;;;2.60;;
15952;SDS011;8075;47.766;8.846;2023-04-03T06:15:21;2.80;;;2.60;;
15952;SDS011;8075;47.766;8.846;2023-04-03T06:17:47;2.65;;;2.45;;
15952;SDS011;8075;47.766;8.846;2023-04-03T06:20:13;3.30;;;2.70;;
15952;SDS011;8075;47.766;8.846;2023-04-03T06:22:40;3.20;;;2.90;;
15952;SDS011;8075;47.766;8.846;2023-04-03T06:25:07;3.53;;;3.22;;
15952;SDS011;8075;47.766;8.846;2023-04-03T06:27:33;4.20;;;3.90;;
15952;SDS011;8075;47.766;8.846;2023-04-03T06:29:59;4.10;;;3.80;;
15952;SDS011;8075;47.766;8.846;2023-04-03T06:32:25;4.40;;;4.00;;
15952;SDS011;8075;47.766;8.846;2023-04-03T06:34:51;4.15;;;3.90;;
15952;SDS011;8075;47.766;8.846;2023-04-03T06:37:19;4.38;;;4.07;;
15952;SDS011;8075;47.766;8.846;2023-04-03T06:39:45;3.90;;;3.60;;
15952;SDS011;8075;47.766;8.846;2023-04-03T06:42:11;4.32;;;3.92;;
15952;SDS011;8075;47.766;8.846;2023-04-03T06:44:38;3.50;;;3.30;;
15952;SDS011;8075;47.766;8.846;2023-04-03T06:47:04;3.20;;;3.00;;
15952;SDS011;8075;47.766;8.846;2023-04-03T06:49:30;3.03;;;2.83;;
15952;SDS011;8075;47.766;8.846;2023-04-03T06:51:57;3.20;;;3.00;;
15952;SDS011;8075;47.766;8.846;2023-04-03T06:54:23;3.23;;;2.93;;
15952;SDS011;8075;47.766;8.846;2023-04-03T06:56:49;3.25;;;3.05;;
15952;SDS011;8075;47.766;8.846;2023-04-03T06:59:15;3.15;;;2.85;;
15952;SDS011;8075;47.766;8.846;2023-04-03T07:01:42;3.33;;;3.10;;
15952;SDS011;8075;47.766;8.846;2023-04-03T07:04:08;3.13;;;2.90;;
15952;SDS011;8075;47.766;8.846;2023-04-03T07:06:34;3.35;;;3.03;;
15952;SDS011;8075;47.766;8.846;2023-04-03T07:09:00;3.27;;;2.97;;
15952;SDS011;8075;47.766;8.846;2023-04-03T07:11:26;3.28;;;3.00;;
15952;SDS011;8075;47.766;8.846;2023-04-03T07:13:52;3.85;;;3.28;;
15952;SDS011;8075;47.766;8.846;2023-04-03T07:16:19;3.88;;;3.58;;
15952;SDS011;8075;47.766;8.846;2023-04-03T07:18:45;3.30;;;3.03;;
15952;SDS011;8075;47.766;8.846;2023-04-03T07:21:11;3.73;;;3.43;;
15952;SDS011;8075;47.766;8.846;2023-04-03T07:23:37;3.60;;;3.30;;
15952;SDS011;8075;47.766;8.846;2023-04-03T07:26:03;3.58;;;3.28;;
15952;SDS011;8075;47.766;8.846;2023-04-03T07:28:29;3.33;;;3.03;;
15952;SDS011;8075;47.766;8.846;2023-04-03T07:31:00;2.90;;;2.70;;
15952;SDS011;8075;47.766;8.846;2023-04-03T07:33:26;3.37;;;3.10;;
15952;SDS011;8075;47.766;8.846;2023-04-03T07:35:52;3.28;;;3.08;;
15952;SDS011;8075;47.766;8.846;2023-04-03T07:38:18;3.37;;;3.07;;
15952;SDS011;8075;47.766;8.846;2023-04-03T07:40:47;3.60;;;3.30;;
15952;SDS011;8075;47.766;8.846;2023-04-03T07:43:14;3.80;;;3.50;;
15952;SDS011;8075;47.766;8.846;2023-04-03T07:45:41;3.17;;;2.87;;
15952;SDS011;8075;47.766;8.846;2023-04-03T07:48:08;3.35;;;3.00;;
15952;SDS011;8075;47.766;8.846;2023-04-03T07:50:34;3.20;;;3.00;;
15952;SDS011;8075;47.766;8.846;2023-04-03T07:53:01;3.05;;;2.80;;
15952;SDS011;8075;47.766;8.846;2023-04-03T07:55:27;2.88;;;2.67;;
15952;SDS011;8075;47.766;8.846;2023-04-03T07:57:53;2.90;;;2.70;;
15952;SDS011;8075;47.766;8.846;2023-04-03T08:00:20;2.70;;;2.50;;
15952;SDS011;8075;47.766;8.846;2023-04-03T08:02:46;2.78;;;2.58;;
15952;SDS011;8075;47.766;8.846;2023-04-03T08:05:19;2.72;;;2.53;;
15952;SDS011;8075;47.766;8.846;2023-04-03T08:07:46;2.88;;;2.67;;
15952;SDS011;8075;47.766;8.846;2023-04-03T08:10:12;2.75;;;2.55;;
15952;SDS011;8075;47.766;8.846;2023-04-03T08:12:38;2.90;;;2.67;;
15952;SDS011;8075;47.766;8.846;2023-04-03T08:15:04;2.65;;;2.30;;
15952;SDS011;8075;47.766;8.846;2023-04-03T08:17:31;2.38;;;2.17;;
15952;SDS011;8075;47.766;8.846;2023-04-03T08:19:57;2.88;;;2.67;;
15952;SDS011;8075;47.766;8.846;2023-04-03T08:22:23;2.60;;;2.40;;
15952;SDS011;8075;47.766;8.846;2023-04-03T08:24:50;2.42;;;2.22;;
15952;SDS011;8075;47.766;8.846;2023-04-03T08:27:16;2.80;;;2.60;;
15952;SDS011;8075;47.766;8.846;2023-04-03T08:29:42;2.87;;;2.67;;
15952;SDS011;8075;47.766;8.846;2023-04-03T08:32:08;2.75;;;2.55;;
15952;SDS011;8075;47.766;8.846;2023-04-03T08:34:34;2.90;;;2.70;;
15952;SDS011;8075;47.766;8.846;2023-04-03T08:37:02;2.53;;;2.33;;
15952;SDS011;8075;47.766;8.846;2023-04-03T08:39:28;2.50;;;2.30;;
15952;SDS011;8075;47.766;8.846;2023-04-03T08:41:55;4.32;;;3.92;;
15952;SDS011;8075;47.766;8.846;2023-04-03T08:44:39;2.92;;;2.67;;
15952;SDS011;8075;47.766;8.846;2023-04-03T08:47:11;5.03;;;4.32;;
15952;SDS011;8075;47.766;8.846;2023-04-03T08:52:13;3.40;;;3.10;;
15952;SDS011;8075;47.766;8.846;2023-04-03T08:54:51;3.00;;;2.80;;
15952;SDS011;8075;47.766;8.846;2023-04-03T08:57:17;2.92;;;2.72;;
15952;SDS011;8075;47.766;8.846;2023-04-03T08:59:45;2.92;;;2.70;;
15952;SDS011;8075;47.766;8.846;2023-04-03T09:02:23;2.88;;;2.67;;
15952;SDS011;8075;47.766;8.846;2023-04-03T09:04:50;2.90;;;2.70;;
15952;SDS011;8075;47.766;8.846;2023-04-03T09:07:25;3.30;;;3.00;;
15952;SDS011;8075;47.766;8.846;2023-04-03T09:09:56;3.80;;;3.50;;
15952;SDS011;8075;47.766;8.846;2023-04-03T09:12:25;3.13;;;2.75;;
15952;SDS011;8075;47.766;8.846;2023-04-03T09:22:32;2.97;;;2.77;;
15952;SDS011;8075;47.766;8.846;2023-04-03T09:27:28;3.40;;;3.10;;
15952;SDS011;8075;47.766;8.846;2023-04-03T09:29:55;3.30;;;3.00;;
15952;SDS011;8075;47.766;8.846;2023-04-03T09:32:26;3.25;;;2.95;;
15952;SDS011;8075;47.766;8.846;2023-04-03T09:34:53;4.72;;;2.80;;
15952;SDS011;8075;47.766;8.846;2023-04-03T09:37:38;2.88;;;2.67;;
15952;SDS011;8075;47.766;8.846;2023-04-03T09:40:04;3.20;;;2.50;;
15952;SDS011;8075;47.766;8.846;2023-04-03T09:42:31;3.10;;;2.80;;
15952;SDS011;8075;47.766;8.846;2023-04-03T09:45:01;3.20;;;2.83;;
15952;SDS011;8075;47.766;8.846;2023-04-03T09:47:29;3.25;;;3.05;;
15952;SDS011;8075;47.766;8.846;2023-04-03T09:52:43;3.40;;;3.10;;
15952;SDS011;8075;47.766;8.846;2023-04-03T09:55:14;2.83;;;2.63;;
15952;SDS011;8075;47.766;8.846;2023-04-03T09:57:40;2.65;;;2.42;;
15952;SDS011;8075;47.766;8.846;2023-04-03T10:00:10;3.33;;;2.90;;
15952;SDS011;8075;47.766;8.846;2023-04-03T10:02:44;3.10;;;2.90;;
15952;SDS011;8075;47.766;8.846;2023-04-03T10:05:29;3.80;;;3.47;;
15952;SDS011;8075;47.766;8.846;2023-04-03T10:08:07;3.00;;;2.80;;
15952;SDS011;8075;47.766;8.846;2023-04-03T10:10:33;3.40;;;3.10;;
15952;SDS011;8075;47.766;8.846;2023-04-03T10:15:34;3.53;;;3.22;;
15952;SDS011;8075;47.766;8.846;2023-04-03T10:18:02;2.80;;;2.60;;
15952;SDS011;8075;47.766;8.846;2023-04-03T10:36:42;3.03;;;2.83;;
15952;SDS011;8075;47.766;8.846;2023-04-03T10:39:00;3.00;;;2.78;;
15952;SDS011;8075;47.766;8.846;2023-04-03T10:46:40;3.15;;;2.85;;
15952;SDS011;8075;47.766;8.846;2023-04-03T10:54:38;2.28;;;2.08;;
15952;SDS011;8075;47.766;8.846;2023-04-03T10:57:06;2.25;;;2.05;;
15952;SDS011;8075;47.766;8.846;2023-04-03T10:59:38;2.35;;;2.15;;
15952;SDS011;8075;47.766;8.846;2023-04-03T11:04:39;2.53;;;2.33;;
15952;SDS011;8075;47.766;8.846;2023-04-03T11:07:22;3.53;;;3.00;;
15952;SDS011;8075;47.766;8.846;2023-04-03T11:09:52;3.22;;;2.97;;
15952;SDS011;8075;47.766;8.846;2023-04-03T11:12:24;2.45;;;2.25;;
15952;SDS011;8075;47.766;8.846;2023-04-03T11:14:52;3.00;;;2.65;;
15952;SDS011;8075;47.766;8.846;2023-04-03T11:19:51;3.80;;;3.00;;
15952;SDS011;8075;47.766;8.846;2023-04-03T11:22:29;2.50;;;2.30;;
15952;SDS011;8075;47.766;8.846;2023-04-03T11:25:03;3.17;;;2.72;;
15952;SDS011;8075;47.766;8.846;2023-04-03T11:27:33;2.70;;;2.60;;
15952;SDS011;8075;47.766;8.846;2023-04-03T11:30:03;3.08;;;2.85;;
15952;SDS011;8075;47.766;8.846;2023-04-03T11:35:16;3.17;;;2.87;;
15952;SDS011;8075;47.766;8.846;2023-04-03T11:37:44;3.97;;;3.22;;
15952;SDS011;8075;47.766;8.846;2023-04-03T11:42:40;3.13;;;2.92;;
15952;SDS011;8075;47.766;8.846;2023-04-03T11:48:41;3.10;;;2.90;;
15952;SDS011;8075;47.766;8.846;2023-04-03T11:51:43;3.13;;;2.83;;
15952;SDS011;8075;47.766;8.846;2023-04-03T11:53:46;3.05;;;2.80;;
15952;SDS011;8075;47.766;8.846;2023-04-03T12:01:52;2.60;;;2.40;;
15952;SDS011;8075;47.766;8.846;2023-04-03T12:04:19;3.40;;;2.70;;
15952;SDS011;8075;47.766;8.846;2023-04-03T12:11:47;4.97;;;4.00;;
15952;SDS011;8075;47.766;8.846;2023-04-03T12:14:14;2.85;;;2.53;;
15952;SDS011;8075;47.766;8.846;2023-04-03T12:24:27;2.70;;;2.50;;
15952;SDS011;8075;47.766;8.846;2023-04-03T12:38:01;2.50;;;2.30;;
15952;SDS011;8075;47.766;8.846;2023-04-03T12:45:15;2.47;;;2.25;;
15952;SDS011;8075;47.766;8.846;2023-04-03T12:47:43;2.30;;;2.10;;
15952;SDS011;8075;47.766;8.846;2023-04-03T12:55:31;1.90;;;1.80;;
15952;SDS011;8075;47.766;8.846;2023-04-03T12:57:57;2.33;;;1.90;;
15952;SDS011;8075;47.766;8.846;2023-04-03T13:00:38;2.23;;;2.03;;
15952;SDS011;8075;47.766;8.846;2023-04-03T13:03:05;2.42;;;1.58;;
15952;SDS011;8075;47.766;8.846;2023-04-03T13:05:32;1.67;;;1.58;;
15952;SDS011;8075;47.766;8.846;2023-04-03T13:08:03;1.90;;;1.80;;
15952;SDS011;8075;47.766;8.846;2023-04-03T13:10:30;1.73;;;1.63;;
15952;SDS011;8075;47.766;8.846;2023-04-03T13:12:57;3.87;;;1.77;;
15952;SDS011;8075;47.766;8.846;2023-04-03T13:15:29;1.80;;;1.60;;
15952;SDS011;8075;47.766;8.846;2023-04-03T13:17:56;2.05;;;1.90;;
15952;SDS011;8075;47.766;8.846;2023-04-03T13:25:17;2.35;;;2.15;;
15952;SDS011;8075;47.766;8.846;2023-04-03T13:27:45;2.50;;;2.30;;
15952;SDS011;8075;47.766;8.846;2023-04-03T13:32:46;3.30;;;2.50;;
15952;SDS011;8075;47.766;8.846;2023-04-03T13:37:58;2.25;;;2.05;;
15952;SDS011;8075;47.766;8.846;2023-04-03T13:40:25;2.97;;;2.30;;
15952;SDS011;8075;47.766;8.846;2023-04-03T13:43:01;2.85;;;2.20;;
15952;SDS011;8075;47.766;8.846;2023-04-03T13:45:29;2.83;;;2.30;;
15952;SDS011;8075;47.766;8.846;2023-04-03T13:50:58;2.22;;;2.03;;
15952;SDS011;8075;47.766;8.846;2023-04-03T13:53:25;2.10;;;1.90;;
15952;SDS011;8075;47.766;8.846;2023-04-03T13:56:08;2.10;;;1.90;;
15952;SDS011;8075;47.766;8.846;2023-04-03T13:58:36;2.10;;;1.80;;
15952;SDS011;8075;47.766;8.846;2023-04-03T14:03:37;2.60;;;2.30;;
15952;SDS011;8075;47.766;8.846;2023-04-03T14:06:08;2.33;;;1.98;;
15952;SDS011;8075;47.766;8.846;2023-04-03T14:08:35;7.68;;;6.43;;
15952;SDS011;8075;47.766;8.846;2023-04-03T14:11:01;5.60;;;2.67;;
15952;SDS011;8075;47.766;8.846;2023-04-03T14:13:29;4.20;;;3.85;;
15952;SDS011;8075;47.766;8.846;2023-04-03T14:15:55;6.40;;;5.90;;
15952;SDS011;8075;47.766;8.846;2023-04-03T14:18:21;3.53;;;3.22;;
15952;SDS011;8075;47.766;8.846;2023-04-03T14:20:48;43.15;;;23.85;;
15952;SDS011;8075;47.766;8.846;2023-04-03T14:23:14;22.20;;;14.37;;
15952;SDS011;8075;47.766;8.846;2023-04-03T14:25:41;8.02;;;7.32;;
15952;SDS011;8075;47.766;8.846;2023-04-03T14:28:17;2.58;;;2.38;;
15952;SDS011;8075;47.766;8.846;2023-04-03T14:30:44;2.20;;;2.00;;
15952;SDS011;8075;47.766;8.846;2023-04-03T14:33:15;2.13;;;1.92;;
15952;SDS011;8075;47.766;8.846;2023-04-03T14:35:42;3.58;;;2.13;;
15952;SDS011;8075;47.766;8.846;2023-04-03T14:40:49;2.28;;;2.00;;
15952;SDS011;8075;47.766;8.846;2023-04-03T14:43:15;2.38;;;2.17;;
15952;SDS011;8075;47.766;8.846;2023-04-03T14:45:42;2.33;;;2.00;;
15952;SDS011;8075;47.766;8.846;2023-04-03T14:48:15;2.53;;;2.33;;
15952;SDS011;8075;47.766;8.846;2023-04-03T14:50:42;2.85;;;1.88;;
15952;SDS011;8075;47.766;8.846;2023-04-03T14:53:09;2.10;;;1.90;;
15952;SDS011;8075;47.766;8.846;2023-04-03T14:55:37;3.03;;;1.88;;
15952;SDS011;8075;47.766;8.846;2023-04-03T14:58:03;3.65;;;1.83;;
15952;SDS011;8075;47.766;8.846;2023-04-03T15:00:29;2.22;;;2.03;;
15952;SDS011;8075;47.766;8.846;2023-04-03T15:02:55;3.03;;;2.00;;
15952;SDS011;8075;47.766;8.846;2023-04-03T15:05:21;3.80;;;3.50;;
15952;SDS011;8075;47.766;8.846;2023-04-03T15:07:52;3.30;;;3.10;;
15952;SDS011;8075;47.766;8.846;2023-04-03T15:10:26;2.80;;;2.60;;
15952;SDS011;8075;47.766;8.846;2023-04-03T15:12:52;2.23;;;2.00;;
15952;SDS011;8075;47.766;8.846;2023-04-03T15:15:20;2.65;;;2.42;;
15952;SDS011;8075;47.766;8.846;2023-04-03T15:17:47;2.08;;;1.90;;
15952;SDS011;8075;47.766;8.846;2023-04-03T15:20:14;3.43;;;2.40;;
15952;SDS011;8075;47.766;8.846;2023-04-03T15:22:41;2.95;;;2.00;;
15952;SDS011;8075;47.766;8.846;2023-04-03T15:25:07;2.78;;;2.20;;
15952;SDS011;8075;47.766;8.846;2023-04-03T15:27:34;2.03;;;1.90;;
15952;SDS011;8075;47.766;8.846;2023-04-03T15:30:00;2.78;;;2.10;;
15952;SDS011;8075;47.766;8.846;2023-04-03T15:32:26;2.22;;;2.03;;
15952;SDS011;8075;47.766;8.846;2023-04-03T15:34:53;2.40;;;2.17;;
15952;SDS011;8075;47.766;8.846;2023-04-03T15:37:19;2.20;;;2.00;;
15952;SDS011;8075;47.766;8.846;2023-04-03T15:39:45;2.47;;;2.22;;
15952;SDS011;8075;47.766;8.846;2023-04-03T15:42:11;2.72;;;2.53;;
15952;SDS011;8075;47.766;8.846;2023-04-03T15:44:37;2.40;;;2.20;;
15952;SDS011;8075;47.766;8.846;2023-04-03T15:47:04;2.30;;;2.08;;
15952;SDS011;8075;47.766;8.846;2023-04-03T15:49:30;2.15;;;1.90;;
15952;SDS011;8075;47.766;8.846;2023-04-03T15:51:58;2.72;;;2.45;;
15952;SDS011;8075;47.766;8.846;2023-04-03T15:54:24;2.60;;;2.30;;
15952;SDS011;8075;47.766;8.846;2023-04-03T15:56:51;2.50;;;2.30;;
15952;SDS011;8075;47.766;8.846;2023-04-03T15:59:17;3.45;;;2.63;;
15952;SDS011;8075;47.766;8.846;2023-04-03T16:01:43;2.60;;;2.40;;
15952;SDS011;8075;47.766;8.846;2023-04-03T16:04:09;2.78;;;2.58;;
15952;SDS011;8075;47.766;8.846;2023-04-03T16:06:35;2.45;;;2.25;;
15952;SDS011;8075;47.766;8.846;2023-04-03T16:09:02;2.58;;;2.38;;
15952;SDS011;8075;47.766;8.846;2023-04-03T16:11:28;2.65;;;2.45;;
15952;SDS011;8075;47.766;8.846;2023-04-03T16:13:54;2.95;;;2.50;;
15952;SDS011;8075;47.766;8.846;2023-04-03T16:16:20;2.70;;;2.50;;
15952;SDS011;8075;47.766;8.846;2023-04-03T16:18:46;2.92;;;2.40;;
15952;SDS011;8075;47.766;8.846;2023-04-03T16:21:13;4.63;;;2.57;;
15952;SDS011;8075;47.766;8.846;2023-04-03T16:23:40;2.42;;;2.22;;
15952;SDS011;8075;47.766;8.846;2023-04-03T16:26:06;2.80;;;2.60;;
15952;SDS011;8075;47.766;8.846;2023-04-03T16:28:32;3.33;;;2.28;;
15952;SDS011;8075;47.766;8.846;2023-04-03T16:30:58;2.88;;;2.10;;
15952;SDS011;8075;47.766;8.846;2023-04-03T16:33:25;3.60;;;2.22;;
15952;SDS011;8075;47.766;8.846;2023-04-03T16:35:51;3.38;;;2.10;;
15952;SDS011;8075;47.766;8.846;2023-04-03T16:38:17;2.42;;;2.22;;
15952;SDS011;8075;47.766;8.846;2023-04-03T16:40:44;3.47;;;2.65;;
15952;SDS011;8075;47.766;8.846;2023-04-03T16:43:10;2.78;;;2.40;;
15952;SDS011;8075;47.766;8.846;2023-04-03T16:45:36;2.42;;;2.20;;
15952;SDS011;8075;47.766;8.846;2023-04-03T16:48:02;3.22;;;2.38;;
15952;SDS011;8075;47.766;8.846;2023-04-03T16:50:28;2.60;;;1.80;;
15952;SDS011;8075;47.766;8.846;2023-04-03T16:52:54;4.68;;;3.60;;
15952;SDS011;8075;47.766;8.846;2023-04-03T16:55:20;2.80;;;2.60;;
15952;SDS011;8075;47.766;8.846;2023-04-03T16:57:46;2.33;;;2.13;;
15952;SDS011;8075;47.766;8.846;2023-04-03T17:00:12;2.70;;;2.40;;
15952;SDS011;8075;47.766;8.846;2023-04-03T17:02:39;3.17;;;2.45;;
15952;SDS011;8075;47.766;8.846;2023-04-03T17:05:06;2.85;;;2.53;;
15952;SDS011;8075;47.766;8.846;2023-04-03T17:07:32;2.93;;;2.53;;